sensor_id;sensor_type;location;lat;lon;timestamp;P1;durP1;ratioP1;P2;durP2;ratioP2
1471;SDS011;963;42.644;23.336;2023-09-19T00:00:23;6.70;;;4.77;;
1471;SDS011;963;42.644;23.336;2023-09-19T00:02:54;6.17;;;4.40;;
1471;SDS011;963;42.644;23.336;2023-09-19T00:05:24;5.13;;;4.50;;
1471;SDS011;963;42.644;23.336;2023-09-19T00:07:53;8.10;;;4.77;;
1471;SDS011;963;42.644;23.336;2023-09-19T00:10:19;7.00;;;4.83;;
1471;SDS011;963;42.644;23.336;2023-09-19T00:12:46;10.43;;;5.90;;
1471;SDS011;963;42.644;23.336;2023-09-19T00:15:12;5.17;;;4.67;;
1471;SDS011;963;42.644;23.336;2023-09-19T00:17:38;6.10;;;4.50;;
1471;SDS011;963;42.644;23.336;2023-09-19T00:20:05;5.90;;;4.33;;
1471;SDS011;963;42.644;23.336;2023-09-19T00:22:40;6.17;;;4.80;;
1471;SDS011;963;42.644;23.336;2023-09-19T00:25:07;6.77;;;5.00;;
1471;SDS011;963;42.644;23.336;2023-09-19T00:27:32;6.33;;;4.63;;
1471;SDS011;963;42.644;23.336;2023-09-19T00:30:00;7.30;;;5.00;;
1471;SDS011;963;42.644;23.336;2023-09-19T00:32:26;5.43;;;4.70;;
1471;SDS011;963;42.644;23.336;2023-09-19T00:34:57;6.50;;;4.90;;
1471;SDS011;963;42.644;23.336;2023-09-19T00:37:22;5.20;;;4.67;;
1471;SDS011;963;42.644;23.336;2023-09-19T00:39:48;7.30;;;4.90;;
1471;SDS011;963;42.644;23.336;2023-09-19T00:42:19;7.80;;;4.97;;
1471;SDS011;963;42.644;23.336;2023-09-19T00:44:46;5.80;;;5.10;;
1471;SDS011;963;42.644;23.336;2023-09-19T00:47:11;5.87;;;4.33;;
1471;SDS011;963;42.644;23.336;2023-09-19T00:49:41;8.00;;;4.87;;
1471;SDS011;963;42.644;23.336;2023-09-19T00:52:07;6.83;;;4.80;;
1471;SDS011;963;42.644;23.336;2023-09-19T00:54:35;5.70;;;5.03;;
1471;SDS011;963;42.644;23.336;2023-09-19T00:57:01;5.83;;;4.40;;
1471;SDS011;963;42.644;23.336;2023-09-19T00:59:26;5.73;;;4.43;;
1471;SDS011;963;42.644;23.336;2023-09-19T01:01:53;5.97;;;4.87;;
1471;SDS011;963;42.644;23.336;2023-09-19T01:04:19;7.97;;;5.70;;
1471;SDS011;963;42.644;23.336;2023-09-19T01:06:45;5.87;;;5.27;;
1471;SDS011;963;42.644;23.336;2023-09-19T01:09:11;8.10;;;4.83;;
1471;SDS011;963;42.644;23.336;2023-09-19T01:11:43;8.43;;;4.90;;
1471;SDS011;963;42.644;23.336;2023-09-19T01:17:00;7.70;;;5.03;;
1471;SDS011;963;42.644;23.336;2023-09-19T01:19:43;6.83;;;4.90;;
1471;SDS011;963;42.644;23.336;2023-09-19T01:30:56;8.30;;;4.87;;
1471;SDS011;963;42.644;23.336;2023-09-19T01:33:25;5.37;;;4.87;;
1471;SDS011;963;42.644;23.336;2023-09-19T01:35:51;5.60;;;4.60;;
1471;SDS011;963;42.644;23.336;2023-09-19T01:38:18;6.17;;;4.80;;
1471;SDS011;963;42.644;23.336;2023-09-19T01:40:48;5.50;;;5.00;;
1471;SDS011;963;42.644;23.336;2023-09-19T01:43:33;6.37;;;5.07;;
1471;SDS011;963;42.644;23.336;2023-09-19T01:46:24;8.07;;;5.50;;
1471;SDS011;963;42.644;23.336;2023-09-19T01:51:42;8.77;;;5.50;;
1471;SDS011;963;42.644;23.336;2023-09-19T01:54:18;9.20;;;5.87;;
1471;SDS011;963;42.644;23.336;2023-09-19T01:59:17;8.90;;;6.07;;
1471;SDS011;963;42.644;23.336;2023-09-19T02:01:49;6.93;;;6.23;;
1471;SDS011;963;42.644;23.336;2023-09-19T02:04:17;7.67;;;5.97;;
1471;SDS011;963;42.644;23.336;2023-09-19T02:06:42;7.03;;;5.93;;
1471;SDS011;963;42.644;23.336;2023-09-19T02:09:08;7.07;;;6.37;;
1471;SDS011;963;42.644;23.336;2023-09-19T02:11:34;7.73;;;6.37;;
1471;SDS011;963;42.644;23.336;2023-09-19T02:14:00;12.43;;;6.60;;
1471;SDS011;963;42.644;23.336;2023-09-19T02:16:26;8.27;;;5.90;;
1471;SDS011;963;42.644;23.336;2023-09-19T02:18:51;10.13;;;6.43;;
1471;SDS011;963;42.644;23.336;2023-09-19T02:21:17;8.23;;;6.87;;
1471;SDS011;963;42.644;23.336;2023-09-19T02:23:43;8.00;;;6.37;;
1471;SDS011;963;42.644;23.336;2023-09-19T02:26:10;7.07;;;6.33;;
1471;SDS011;963;42.644;23.336;2023-09-19T02:28:37;7.80;;;6.20;;
1471;SDS011;963;42.644;23.336;2023-09-19T02:31:02;7.60;;;6.80;;
1471;SDS011;963;42.644;23.336;2023-09-19T02:33:30;8.10;;;6.50;;
1471;SDS011;963;42.644;23.336;2023-09-19T02:35:57;8.00;;;6.30;;
1471;SDS011;963;42.644;23.336;2023-09-19T02:38:24;8.00;;;6.67;;
1471;SDS011;963;42.644;23.336;2023-09-19T02:40:53;8.40;;;6.50;;
1471;SDS011;963;42.644;23.336;2023-09-19T02:43:20;11.23;;;7.07;;
1471;SDS011;963;42.644;23.336;2023-09-19T02:45:47;7.80;;;6.53;;
1471;SDS011;963;42.644;23.336;2023-09-19T02:48:14;7.77;;;6.50;;
1471;SDS011;963;42.644;23.336;2023-09-19T02:50:41;7.07;;;6.20;;
1471;SDS011;963;42.644;23.336;2023-09-19T02:53:07;10.00;;;5.93;;
1471;SDS011;963;42.644;23.336;2023-09-19T02:55:32;6.70;;;6.00;;
1471;SDS011;963;42.644;23.336;2023-09-19T02:57:59;11.47;;;6.77;;
1471;SDS011;963;42.644;23.336;2023-09-19T03:00:25;8.00;;;6.73;;
1471;SDS011;963;42.644;23.336;2023-09-19T03:02:55;7.17;;;6.43;;
1471;SDS011;963;42.644;23.336;2023-09-19T03:05:21;10.27;;;6.60;;
1471;SDS011;963;42.644;23.336;2023-09-19T03:07:48;7.30;;;6.60;;
1471;SDS011;963;42.644;23.336;2023-09-19T03:10:16;10.53;;;6.40;;
1471;SDS011;963;42.644;23.336;2023-09-19T03:12:44;8.33;;;6.10;;
1471;SDS011;963;42.644;23.336;2023-09-19T03:15:10;7.23;;;6.07;;
1471;SDS011;963;42.644;23.336;2023-09-19T03:17:36;8.57;;;7.17;;
1471;SDS011;963;42.644;23.336;2023-09-19T03:20:02;8.77;;;5.87;;
1471;SDS011;963;42.644;23.336;2023-09-19T03:22:34;8.77;;;6.50;;
1471;SDS011;963;42.644;23.336;2023-09-19T03:25:00;10.60;;;6.90;;
1471;SDS011;963;42.644;23.336;2023-09-19T03:27:26;7.63;;;6.50;;
1471;SDS011;963;42.644;23.336;2023-09-19T03:29:52;12.07;;;6.60;;
1471;SDS011;963;42.644;23.336;2023-09-19T03:32:18;9.00;;;6.50;;
1471;SDS011;963;42.644;23.336;2023-09-19T03:34:44;11.93;;;6.43;;
1471;SDS011;963;42.644;23.336;2023-09-19T03:37:09;8.33;;;5.60;;
1471;SDS011;963;42.644;23.336;2023-09-19T03:39:35;9.70;;;5.97;;
1471;SDS011;963;42.644;23.336;2023-09-19T03:42:01;11.47;;;5.67;;
1471;SDS011;963;42.644;23.336;2023-09-19T03:44:29;7.53;;;6.13;;
1471;SDS011;963;42.644;23.336;2023-09-19T03:46:54;8.37;;;5.53;;
1471;SDS011;963;42.644;23.336;2023-09-19T03:49:21;8.37;;;6.00;;
1471;SDS011;963;42.644;23.336;2023-09-19T03:51:46;11.37;;;5.40;;
1471;SDS011;963;42.644;23.336;2023-09-19T03:54:12;7.80;;;5.97;;
1471;SDS011;963;42.644;23.336;2023-09-19T03:56:37;7.50;;;5.97;;
1471;SDS011;963;42.644;23.336;2023-09-19T03:59:03;8.93;;;7.03;;
1471;SDS011;963;42.644;23.336;2023-09-19T04:01:28;8.70;;;6.73;;
1471;SDS011;963;42.644;23.336;2023-09-19T04:03:56;10.50;;;6.73;;
1471;SDS011;963;42.644;23.336;2023-09-19T04:06:22;7.40;;;6.70;;
1471;SDS011;963;42.644;23.336;2023-09-19T04:08:47;10.50;;;7.70;;
1471;SDS011;963;42.644;23.336;2023-09-19T04:11:13;8.07;;;6.67;;
1471;SDS011;963;42.644;23.336;2023-09-19T04:13:39;8.90;;;6.53;;
1471;SDS011;963;42.644;23.336;2023-09-19T04:16:05;8.67;;;6.80;;
1471;SDS011;963;42.644;23.336;2023-09-19T04:18:31;10.33;;;6.87;;
1471;SDS011;963;42.644;23.336;2023-09-19T04:20:59;9.27;;;6.93;;
1471;SDS011;963;42.644;23.336;2023-09-19T04:23:28;9.60;;;6.73;;
1471;SDS011;963;42.644;23.336;2023-09-19T04:25:54;11.07;;;7.00;;
1471;SDS011;963;42.644;23.336;2023-09-19T04:28:19;9.43;;;7.13;;
1471;SDS011;963;42.644;23.336;2023-09-19T04:30:44;9.03;;;6.73;;
1471;SDS011;963;42.644;23.336;2023-09-19T04:33:10;9.13;;;6.90;;
1471;SDS011;963;42.644;23.336;2023-09-19T04:35:36;11.30;;;7.53;;
1471;SDS011;963;42.644;23.336;2023-09-19T04:38:04;9.50;;;7.57;;
1471;SDS011;963;42.644;23.336;2023-09-19T04:40:31;11.10;;;7.27;;
1471;SDS011;963;42.644;23.336;2023-09-19T04:42:57;8.60;;;7.53;;
1471;SDS011;963;42.644;23.336;2023-09-19T04:45:23;9.43;;;7.10;;
1471;SDS011;963;42.644;23.336;2023-09-19T04:47:49;9.80;;;7.03;;
1471;SDS011;963;42.644;23.336;2023-09-19T04:50:15;8.03;;;7.00;;
1471;SDS011;963;42.644;23.336;2023-09-19T04:52:42;11.50;;;7.37;;
1471;SDS011;963;42.644;23.336;2023-09-19T04:55:09;11.63;;;7.63;;
1471;SDS011;963;42.644;23.336;2023-09-19T04:57:48;11.30;;;7.03;;
1471;SDS011;963;42.644;23.336;2023-09-19T05:00:15;11.60;;;7.10;;
1471;SDS011;963;42.644;23.336;2023-09-19T05:02:43;11.63;;;6.50;;
1471;SDS011;963;42.644;23.336;2023-09-19T05:05:09;8.37;;;7.00;;
1471;SDS011;963;42.644;23.336;2023-09-19T05:07:36;12.73;;;7.23;;
1471;SDS011;963;42.644;23.336;2023-09-19T05:10:02;9.77;;;8.30;;
1471;SDS011;963;42.644;23.336;2023-09-19T05:12:31;12.43;;;8.40;;
1471;SDS011;963;42.644;23.336;2023-09-19T05:14:57;14.37;;;9.60;;
1471;SDS011;963;42.644;23.336;2023-09-19T05:17:22;14.90;;;12.40;;
1471;SDS011;963;42.644;23.336;2023-09-19T05:19:49;21.33;;;16.73;;
1471;SDS011;963;42.644;23.336;2023-09-19T05:22:15;19.73;;;15.03;;
1471;SDS011;963;42.644;23.336;2023-09-19T05:24:40;15.43;;;13.93;;
1471;SDS011;963;42.644;23.336;2023-09-19T05:27:06;16.33;;;11.00;;
1471;SDS011;963;42.644;23.336;2023-09-19T05:29:32;12.87;;;10.43;;
1471;SDS011;963;42.644;23.336;2023-09-19T05:31:58;17.83;;;9.23;;
1471;SDS011;963;42.644;23.336;2023-09-19T05:34:24;11.90;;;7.77;;
1471;SDS011;963;42.644;23.336;2023-09-19T05:36:53;10.07;;;7.73;;
1471;SDS011;963;42.644;23.336;2023-09-19T05:39:19;9.07;;;6.90;;
1471;SDS011;963;42.644;23.336;2023-09-19T05:41:45;18.63;;;6.73;;
1471;SDS011;963;42.644;23.336;2023-09-19T05:44:12;9.90;;;7.37;;
1471;SDS011;963;42.644;23.336;2023-09-19T05:46:39;10.53;;;7.00;;
1471;SDS011;963;42.644;23.336;2023-09-19T05:49:04;13.90;;;7.30;;
1471;SDS011;963;42.644;23.336;2023-09-19T05:51:30;8.90;;;6.60;;
1471;SDS011;963;42.644;23.336;2023-09-19T05:53:56;15.83;;;7.13;;
1471;SDS011;963;42.644;23.336;2023-09-19T05:56:21;13.90;;;7.27;;
1471;SDS011;963;42.644;23.336;2023-09-19T05:58:47;17.33;;;9.50;;
1471;SDS011;963;42.644;23.336;2023-09-19T06:01:12;12.53;;;7.30;;
1471;SDS011;963;42.644;23.336;2023-09-19T06:03:38;8.13;;;5.40;;
1471;SDS011;963;42.644;23.336;2023-09-19T06:06:03;13.47;;;5.23;;
1471;SDS011;963;42.644;23.336;2023-09-19T06:08:31;5.77;;;5.17;;
1471;SDS011;963;42.644;23.336;2023-09-19T06:10:58;8.20;;;6.43;;
1471;SDS011;963;42.644;23.336;2023-09-19T06:13:24;7.77;;;5.60;;
1471;SDS011;963;42.644;23.336;2023-09-19T06:15:51;6.33;;;5.07;;
1471;SDS011;963;42.644;23.336;2023-09-19T06:18:17;8.50;;;5.30;;
1471;SDS011;963;42.644;23.336;2023-09-19T06:20:48;13.10;;;5.90;;
1471;SDS011;963;42.644;23.336;2023-09-19T06:23:15;7.63;;;5.90;;
1471;SDS011;963;42.644;23.336;2023-09-19T06:25:42;8.00;;;6.10;;
1471;SDS011;963;42.644;23.336;2023-09-19T06:28:08;10.60;;;6.30;;
1471;SDS011;963;42.644;23.336;2023-09-19T06:30:37;7.40;;;6.30;;
1471;SDS011;963;42.644;23.336;2023-09-19T06:33:05;9.00;;;6.03;;
1471;SDS011;963;42.644;23.336;2023-09-19T06:35:32;10.30;;;7.10;;
1471;SDS011;963;42.644;23.336;2023-09-19T06:37:58;8.57;;;5.93;;
1471;SDS011;963;42.644;23.336;2023-09-19T06:40:24;6.93;;;5.23;;
1471;SDS011;963;42.644;23.336;2023-09-19T06:42:52;7.63;;;5.50;;
1471;SDS011;963;42.644;23.336;2023-09-19T06:45:19;6.07;;;5.47;;
1471;SDS011;963;42.644;23.336;2023-09-19T06:50:17;7.40;;;5.10;;
1471;SDS011;963;42.644;23.336;2023-09-19T06:52:44;6.10;;;5.20;;
1471;SDS011;963;42.644;23.336;2023-09-19T06:55:10;8.33;;;5.30;;
1471;SDS011;963;42.644;23.336;2023-09-19T06:57:38;8.07;;;5.13;;
1471;SDS011;963;42.644;23.336;2023-09-19T07:00:05;8.50;;;5.70;;
1471;SDS011;963;42.644;23.336;2023-09-19T07:02:40;8.83;;;5.70;;
1471;SDS011;963;42.644;23.336;2023-09-19T07:05:09;8.30;;;5.33;;
1471;SDS011;963;42.644;23.336;2023-09-19T07:07:34;8.53;;;6.20;;
1471;SDS011;963;42.644;23.336;2023-09-19T07:10:03;9.33;;;5.43;;
1471;SDS011;963;42.644;23.336;2023-09-19T07:12:33;8.63;;;5.50;;
1471;SDS011;963;42.644;23.336;2023-09-19T07:14:58;9.97;;;6.40;;
1471;SDS011;963;42.644;23.336;2023-09-19T07:17:24;7.47;;;5.37;;
1471;SDS011;963;42.644;23.336;2023-09-19T07:19:49;7.50;;;5.67;;
1471;SDS011;963;42.644;23.336;2023-09-19T07:22:15;16.50;;;8.13;;
1471;SDS011;963;42.644;23.336;2023-09-19T07:24:41;11.00;;;7.10;;
1471;SDS011;963;42.644;23.336;2023-09-19T07:27:06;10.17;;;5.70;;
1471;SDS011;963;42.644;23.336;2023-09-19T07:29:32;6.97;;;6.27;;
1471;SDS011;963;42.644;23.336;2023-09-19T07:31:57;9.63;;;6.00;;
1471;SDS011;963;42.644;23.336;2023-09-19T07:34:23;7.27;;;5.23;;
1471;SDS011;963;42.644;23.336;2023-09-19T07:36:49;12.17;;;6.43;;
1471;SDS011;963;42.644;23.336;2023-09-19T07:39:15;7.30;;;5.97;;
1471;SDS011;963;42.644;23.336;2023-09-19T07:41:40;11.10;;;5.93;;
1471;SDS011;963;42.644;23.336;2023-09-19T07:44:07;10.13;;;6.30;;
1471;SDS011;963;42.644;23.336;2023-09-19T07:46:32;8.47;;;6.10;;
1471;SDS011;963;42.644;23.336;2023-09-19T07:48:58;8.60;;;4.90;;
1471;SDS011;963;42.644;23.336;2023-09-19T07:51:23;11.10;;;5.80;;
1471;SDS011;963;42.644;23.336;2023-09-19T07:53:49;8.70;;;5.97;;
1471;SDS011;963;42.644;23.336;2023-09-19T07:56:14;11.97;;;6.20;;
1471;SDS011;963;42.644;23.336;2023-09-19T07:58:40;9.03;;;5.83;;
1471;SDS011;963;42.644;23.336;2023-09-19T08:01:09;7.77;;;6.07;;
1471;SDS011;963;42.644;23.336;2023-09-19T08:03:35;7.07;;;5.10;;
1471;SDS011;963;42.644;23.336;2023-09-19T08:06:10;11.00;;;6.40;;
1471;SDS011;963;42.644;23.336;2023-09-19T08:08:36;11.53;;;8.40;;
1471;SDS011;963;42.644;23.336;2023-09-19T08:11:02;11.10;;;6.50;;
1471;SDS011;963;42.644;23.336;2023-09-19T08:13:46;7.23;;;5.40;;
1471;SDS011;963;42.644;23.336;2023-09-19T08:16:13;12.37;;;6.87;;
1471;SDS011;963;42.644;23.336;2023-09-19T08:18:40;11.03;;;6.23;;
1471;SDS011;963;42.644;23.336;2023-09-19T08:21:06;8.50;;;5.97;;
1471;SDS011;963;42.644;23.336;2023-09-19T08:23:39;12.83;;;6.93;;
1471;SDS011;963;42.644;23.336;2023-09-19T08:26:04;9.50;;;6.73;;
1471;SDS011;963;42.644;23.336;2023-09-19T08:28:34;8.07;;;6.13;;
1471;SDS011;963;42.644;23.336;2023-09-19T08:31:03;13.13;;;7.87;;
1471;SDS011;963;42.644;23.336;2023-09-19T08:33:31;13.57;;;6.87;;
1471;SDS011;963;42.644;23.336;2023-09-19T08:35:57;9.47;;;6.40;;
1471;SDS011;963;42.644;23.336;2023-09-19T08:38:22;13.43;;;7.40;;
1471;SDS011;963;42.644;23.336;2023-09-19T08:40:48;13.70;;;6.93;;
1471;SDS011;963;42.644;23.336;2023-09-19T08:43:14;19.20;;;6.90;;
1471;SDS011;963;42.644;23.336;2023-09-19T08:45:40;17.10;;;7.17;;
1471;SDS011;963;42.644;23.336;2023-09-19T08:50:31;11.43;;;7.23;;
1471;SDS011;963;42.644;23.336;2023-09-19T08:53:01;11.90;;;7.10;;
1471;SDS011;963;42.644;23.336;2023-09-19T08:55:40;9.83;;;7.50;;
1471;SDS011;963;42.644;23.336;2023-09-19T08:58:10;11.57;;;7.10;;
1471;SDS011;963;42.644;23.336;2023-09-19T09:00:36;13.77;;;6.90;;
1471;SDS011;963;42.644;23.336;2023-09-19T09:03:02;11.50;;;7.00;;
1471;SDS011;963;42.644;23.336;2023-09-19T09:05:29;12.37;;;6.80;;
1471;SDS011;963;42.644;23.336;2023-09-19T09:07:57;8.60;;;6.70;;
1471;SDS011;963;42.644;23.336;2023-09-19T09:10:24;12.43;;;7.13;;
1471;SDS011;963;42.644;23.336;2023-09-19T09:12:50;14.20;;;7.43;;
1471;SDS011;963;42.644;23.336;2023-09-19T09:15:19;13.67;;;7.53;;
1471;SDS011;963;42.644;23.336;2023-09-19T09:17:47;9.67;;;6.30;;
1471;SDS011;963;42.644;23.336;2023-09-19T09:20:17;9.73;;;7.23;;
1471;SDS011;963;42.644;23.336;2023-09-19T09:22:53;7.20;;;5.70;;
1471;SDS011;963;42.644;23.336;2023-09-19T09:25:20;8.20;;;6.60;;
1471;SDS011;963;42.644;23.336;2023-09-19T09:27:58;13.40;;;6.90;;
1471;SDS011;963;42.644;23.336;2023-09-19T09:30:36;7.03;;;6.03;;
1471;SDS011;963;42.644;23.336;2023-09-19T09:33:09;9.00;;;6.50;;
1471;SDS011;963;42.644;23.336;2023-09-19T09:38:42;10.93;;;7.23;;
1471;SDS011;963;42.644;23.336;2023-09-19T09:41:09;7.70;;;5.83;;
1471;SDS011;963;42.644;23.336;2023-09-19T09:43:40;10.00;;;6.50;;
1471;SDS011;963;42.644;23.336;2023-09-19T09:48:45;8.53;;;6.57;;
1471;SDS011;963;42.644;23.336;2023-09-19T09:51:29;11.07;;;6.60;;
1471;SDS011;963;42.644;23.336;2023-09-19T09:54:17;11.17;;;7.10;;
1471;SDS011;963;42.644;23.336;2023-09-19T09:56:55;12.93;;;6.37;;
1471;SDS011;963;42.644;23.336;2023-09-19T10:02:19;8.40;;;6.50;;
1471;SDS011;963;42.644;23.336;2023-09-19T10:04:50;9.13;;;6.60;;
1471;SDS011;963;42.644;23.336;2023-09-19T10:07:32;17.00;;;6.20;;
1471;SDS011;963;42.644;23.336;2023-09-19T10:10:04;16.10;;;6.30;;
1471;SDS011;963;42.644;23.336;2023-09-19T10:12:50;7.43;;;5.60;;
1471;SDS011;963;42.644;23.336;2023-09-19T10:15:21;11.00;;;6.50;;
1471;SDS011;963;42.644;23.336;2023-09-19T10:17:50;10.17;;;6.63;;
1471;SDS011;963;42.644;23.336;2023-09-19T10:20:23;7.93;;;5.60;;
1471;SDS011;963;42.644;23.336;2023-09-19T10:23:00;9.13;;;6.67;;
1471;SDS011;963;42.644;23.336;2023-09-19T10:25:29;10.20;;;5.33;;
1471;SDS011;963;42.644;23.336;2023-09-19T10:27:55;7.73;;;5.77;;
1471;SDS011;963;42.644;23.336;2023-09-19T10:30:24;9.87;;;6.13;;
1471;SDS011;963;42.644;23.336;2023-09-19T10:33:00;9.00;;;5.63;;
1471;SDS011;963;42.644;23.336;2023-09-19T10:35:27;7.97;;;5.03;;
1471;SDS011;963;42.644;23.336;2023-09-19T10:37:54;9.83;;;6.00;;
1471;SDS011;963;42.644;23.336;2023-09-19T10:40:22;8.20;;;5.57;;
1471;SDS011;963;42.644;23.336;2023-09-19T10:42:55;8.43;;;5.53;;
1471;SDS011;963;42.644;23.336;2023-09-19T10:45:33;7.37;;;6.03;;
1471;SDS011;963;42.644;23.336;2023-09-19T10:48:00;14.83;;;5.93;;
1471;SDS011;963;42.644;23.336;2023-09-19T10:50:33;11.90;;;7.33;;
1471;SDS011;963;42.644;23.336;2023-09-19T10:53:11;14.07;;;7.13;;
1471;SDS011;963;42.644;23.336;2023-09-19T10:55:38;8.67;;;6.07;;
1471;SDS011;963;42.644;23.336;2023-09-19T10:58:05;7.60;;;5.17;;
1471;SDS011;963;42.644;23.336;2023-09-19T11:00:52;12.90;;;6.63;;
1471;SDS011;963;42.644;23.336;2023-09-19T11:03:19;8.70;;;5.70;;
1471;SDS011;963;42.644;23.336;2023-09-19T11:06:11;10.77;;;6.63;;
1471;SDS011;963;42.644;23.336;2023-09-19T11:30:43;11.93;;;6.10;;
1471;SDS011;963;42.644;23.336;2023-09-19T11:33:23;8.63;;;6.30;;
1471;SDS011;963;42.644;23.336;2023-09-19T11:43:50;6.70;;;5.37;;
1471;SDS011;963;42.644;23.336;2023-09-19T11:49:17;9.23;;;6.20;;
1471;SDS011;963;42.644;23.336;2023-09-19T11:51:50;7.13;;;5.43;;
1471;SDS011;963;42.644;23.336;2023-09-19T11:54:19;7.40;;;5.80;;
1471;SDS011;963;42.644;23.336;2023-09-19T11:56:50;7.27;;;5.70;;
1471;SDS011;963;42.644;23.336;2023-09-19T11:59:23;7.57;;;6.13;;
1471;SDS011;963;42.644;23.336;2023-09-19T12:02:05;8.77;;;6.97;;
1471;SDS011;963;42.644;23.336;2023-09-19T12:04:40;11.70;;;6.60;;
1471;SDS011;963;42.644;23.336;2023-09-19T12:07:08;6.23;;;5.60;;
1471;SDS011;963;42.644;23.336;2023-09-19T12:09:42;7.97;;;6.00;;
1471;SDS011;963;42.644;23.336;2023-09-19T12:12:13;8.03;;;6.23;;
1471;SDS011;963;42.644;23.336;2023-09-19T12:14:48;9.70;;;5.87;;
1471;SDS011;963;42.644;23.336;2023-09-19T12:17:15;7.20;;;6.20;;
1471;SDS011;963;42.644;23.336;2023-09-19T12:19:55;6.50;;;5.57;;
1471;SDS011;963;42.644;23.336;2023-09-19T12:22:22;6.87;;;5.40;;
1471;SDS011;963;42.644;23.336;2023-09-19T12:24:47;7.83;;;4.80;;
1471;SDS011;963;42.644;23.336;2023-09-19T12:27:13;6.10;;;4.90;;
1471;SDS011;963;42.644;23.336;2023-09-19T12:29:46;6.93;;;5.20;;
1471;SDS011;963;42.644;23.336;2023-09-19T12:32:15;8.43;;;5.30;;
1471;SDS011;963;42.644;23.336;2023-09-19T12:34:42;12.53;;;5.77;;
1471;SDS011;963;42.644;23.336;2023-09-19T12:37:14;6.80;;;5.30;;
1471;SDS011;963;42.644;23.336;2023-09-19T12:39:51;8.73;;;5.20;;
1471;SDS011;963;42.644;23.336;2023-09-19T12:42:22;7.13;;;5.60;;
1471;SDS011;963;42.644;23.336;2023-09-19T12:44:49;6.90;;;5.70;;
1471;SDS011;963;42.644;23.336;2023-09-19T12:47:22;13.67;;;10.17;;
1471;SDS011;963;42.644;23.336;2023-09-19T12:52:54;7.70;;;4.90;;
1471;SDS011;963;42.644;23.336;2023-09-19T13:00:47;6.20;;;4.30;;
1471;SDS011;963;42.644;23.336;2023-09-19T13:05:48;9.20;;;5.77;;
1471;SDS011;963;42.644;23.336;2023-09-19T13:08:19;9.20;;;5.50;;
1471;SDS011;963;42.644;23.336;2023-09-19T13:16:16;6.23;;;4.90;;
1471;SDS011;963;42.644;23.336;2023-09-19T13:18:47;6.80;;;4.60;;
1471;SDS011;963;42.644;23.336;2023-09-19T13:21:26;29.67;;;6.03;;
1471;SDS011;963;42.644;23.336;2023-09-19T13:26:48;7.53;;;5.47;;
1471;SDS011;963;42.644;23.336;2023-09-19T13:29:14;10.80;;;5.40;;
1471;SDS011;963;42.644;23.336;2023-09-19T13:31:45;10.70;;;5.50;;
1471;SDS011;963;42.644;23.336;2023-09-19T13:34:15;7.90;;;5.10;;
1471;SDS011;963;42.644;23.336;2023-09-19T13:36:42;7.23;;;5.03;;
1471;SDS011;963;42.644;23.336;2023-09-19T13:39:08;7.90;;;5.30;;
1471;SDS011;963;42.644;23.336;2023-09-19T13:41:34;6.20;;;4.97;;
1471;SDS011;963;42.644;23.336;2023-09-19T13:44:02;6.53;;;4.97;;
1471;SDS011;963;42.644;23.336;2023-09-19T13:46:29;6.27;;;4.50;;
1471;SDS011;963;42.644;23.336;2023-09-19T13:48:58;9.90;;;4.67;;
1471;SDS011;963;42.644;23.336;2023-09-19T13:51:25;7.33;;;4.83;;
1471;SDS011;963;42.644;23.336;2023-09-19T13:53:51;9.20;;;4.70;;
1471;SDS011;963;42.644;23.336;2023-09-19T13:56:17;8.40;;;5.07;;
1471;SDS011;963;42.644;23.336;2023-09-19T13:58:42;12.20;;;9.90;;
1471;SDS011;963;42.644;23.336;2023-09-19T14:01:08;12.10;;;9.60;;
1471;SDS011;963;42.644;23.336;2023-09-19T14:03:38;17.80;;;12.90;;
1471;SDS011;963;42.644;23.336;2023-09-19T14:06:04;15.07;;;11.90;;
1471;SDS011;963;42.644;23.336;2023-09-19T14:08:30;15.00;;;12.10;;
1471;SDS011;963;42.644;23.336;2023-09-19T14:10:55;16.63;;;14.93;;
1471;SDS011;963;42.644;23.336;2023-09-19T14:13:21;32.40;;;25.63;;
1471;SDS011;963;42.644;23.336;2023-09-19T14:15:46;28.70;;;25.60;;
1471;SDS011;963;42.644;23.336;2023-09-19T14:18:12;25.03;;;20.23;;
1471;SDS011;963;42.644;23.336;2023-09-19T14:20:38;13.50;;;11.53;;
1471;SDS011;963;42.644;23.336;2023-09-19T14:23:06;12.40;;;9.27;;
1471;SDS011;963;42.644;23.336;2023-09-19T14:25:33;15.20;;;13.80;;
1471;SDS011;963;42.644;23.336;2023-09-19T14:27:59;15.87;;;13.73;;
1471;SDS011;963;42.644;23.336;2023-09-19T14:30:25;15.17;;;13.40;;
1471;SDS011;963;42.644;23.336;2023-09-19T14:32:51;13.50;;;11.97;;
1471;SDS011;963;42.644;23.336;2023-09-19T14:35:16;13.37;;;11.20;;
1471;SDS011;963;42.644;23.336;2023-09-19T14:37:42;10.53;;;8.20;;
1471;SDS011;963;42.644;23.336;2023-09-19T14:40:08;10.90;;;6.30;;
1471;SDS011;963;42.644;23.336;2023-09-19T14:42:35;7.17;;;6.40;;
1471;SDS011;963;42.644;23.336;2023-09-19T14:45:04;9.73;;;6.03;;
1471;SDS011;963;42.644;23.336;2023-09-19T14:47:30;9.83;;;6.00;;
1471;SDS011;963;42.644;23.336;2023-09-19T14:49:57;10.60;;;6.50;;
1471;SDS011;963;42.644;23.336;2023-09-19T14:52:23;8.87;;;6.13;;
1471;SDS011;963;42.644;23.336;2023-09-19T14:54:51;14.30;;;7.67;;
1471;SDS011;963;42.644;23.336;2023-09-19T14:57:16;10.97;;;7.53;;
1471;SDS011;963;42.644;23.336;2023-09-19T14:59:41;10.50;;;6.13;;
1471;SDS011;963;42.644;23.336;2023-09-19T15:02:07;9.20;;;6.70;;
1471;SDS011;963;42.644;23.336;2023-09-19T15:04:32;13.30;;;6.50;;
1471;SDS011;963;42.644;23.336;2023-09-19T15:06:58;8.17;;;6.10;;
1471;SDS011;963;42.644;23.336;2023-09-19T15:09:24;10.10;;;7.20;;
1471;SDS011;963;42.644;23.336;2023-09-19T15:11:53;8.90;;;5.80;;
1471;SDS011;963;42.644;23.336;2023-09-19T15:14:19;9.97;;;6.27;;
1471;SDS011;963;42.644;23.336;2023-09-19T15:16:46;9.33;;;6.53;;
1471;SDS011;963;42.644;23.336;2023-09-19T15:19:11;8.60;;;7.20;;
1471;SDS011;963;42.644;23.336;2023-09-19T15:21:37;9.87;;;7.60;;
1471;SDS011;963;42.644;23.336;2023-09-19T15:24:02;8.20;;;6.60;;
1471;SDS011;963;42.644;23.336;2023-09-19T15:26:28;7.00;;;6.17;;
1471;SDS011;963;42.644;23.336;2023-09-19T15:28:55;10.13;;;6.77;;
1471;SDS011;963;42.644;23.336;2023-09-19T15:31:20;8.03;;;6.20;;
1471;SDS011;963;42.644;23.336;2023-09-19T15:33:46;10.00;;;5.93;;
1471;SDS011;963;42.644;23.336;2023-09-19T15:36:12;9.57;;;6.13;;
1471;SDS011;963;42.644;23.336;2023-09-19T15:38:58;8.17;;;5.60;;
1471;SDS011;963;42.644;23.336;2023-09-19T15:41:30;7.57;;;6.03;;
1471;SDS011;963;42.644;23.336;2023-09-19T15:44:00;10.60;;;6.10;;
1471;SDS011;963;42.644;23.336;2023-09-19T15:46:27;9.10;;;7.20;;
1471;SDS011;963;42.644;23.336;2023-09-19T15:48:53;11.27;;;7.30;;
1471;SDS011;963;42.644;23.336;2023-09-19T15:51:19;13.20;;;6.30;;
1471;SDS011;963;42.644;23.336;2023-09-19T15:53:45;12.63;;;6.67;;
1471;SDS011;963;42.644;23.336;2023-09-19T15:56:15;16.13;;;6.43;;
1471;SDS011;963;42.644;23.336;2023-09-19T15:58:46;11.93;;;6.03;;
1471;SDS011;963;42.644;23.336;2023-09-19T16:01:13;14.83;;;7.40;;
1471;SDS011;963;42.644;23.336;2023-09-19T16:03:39;16.40;;;6.27;;
1471;SDS011;963;42.644;23.336;2023-09-19T16:06:11;13.30;;;7.00;;
1471;SDS011;963;42.644;23.336;2023-09-19T16:08:46;18.93;;;6.87;;
1471;SDS011;963;42.644;23.336;2023-09-19T16:11:13;7.80;;;6.30;;
1471;SDS011;963;42.644;23.336;2023-09-19T16:13:40;11.50;;;6.70;;
1471;SDS011;963;42.644;23.336;2023-09-19T16:16:09;13.70;;;7.40;;
1471;SDS011;963;42.644;23.336;2023-09-19T16:18:39;12.93;;;6.47;;
1471;SDS011;963;42.644;23.336;2023-09-19T16:21:06;18.83;;;7.20;;
1471;SDS011;963;42.644;23.336;2023-09-19T16:23:35;11.40;;;7.40;;
1471;SDS011;963;42.644;23.336;2023-09-19T16:26:05;9.20;;;6.57;;
1471;SDS011;963;42.644;23.336;2023-09-19T16:28:31;9.83;;;7.00;;
1471;SDS011;963;42.644;23.336;2023-09-19T16:31:03;9.53;;;7.03;;
1471;SDS011;963;42.644;23.336;2023-09-19T16:33:32;10.57;;;6.97;;
1471;SDS011;963;42.644;23.336;2023-09-19T16:35:59;10.00;;;6.60;;
1471;SDS011;963;42.644;23.336;2023-09-19T16:38:26;8.70;;;6.10;;